Poplar Ridge, New York
Current Conditions -  °F | °C
As of 4:56 PM on Tuesday 25 Nov 2014 (Local Time) from KITH Reporting Station
Few Clouds Few Clouds  
Wind Chill: 42°   Ceiling: Unl
Heat Index: 42°   Visibility: 10mi
Dew Point: 26°   Wind: 3mph
Humidity: 53%   Direction: 270°W
Pressure: 30"   Gusts: NA
Location:  42.74°N, 76.62°W
Report Text: KITH 252156Z 27003KT 10SM FEW060 06/M03 A3000 RMK AO2 T00551033 SLP164
Loading
Personal Weather Stations






























Interactive Weather Map New forecast layout! Learn more

10-Day Weather Forecast

Advertisements
Track Severe Weather on mobile